Time;durP1;ratioP1;P1;durP2;ratioP2;P2;SDS_P1;SDS_P2;PMS_P1;PMS_P2;Temp;Humidity;BMP_temperature;BMP_pressure;BME280_temperature;BME280_humidity;BME280_pressure;Samples;Min_cycle;Max_cycle;Signal;HPM_P1;HPM_P2
2021/11/08 00:00:14;;;;;;;4.65;3.28;;;;;;;12.23;63.29;99063.06;5133635;27;20035;-52
2021/11/08 00:02:41;;;;;;;3.83;2.50;;;;;;;12.27;63.26;99055.56;5133597;27;20625;-52
2021/11/08 00:05:08;;;;;;;3.53;2.70;;;;;;;12.30;63.21;99049.91;5133416;27;20030;-52
2021/11/08 00:07:35;;;;;;;4.30;2.70;;;;;;;12.32;63.39;99059.22;5133468;27;20016;-52
2021/11/08 00:10:03;;;;;;;5.63;3.15;;;;;;;12.30;63.19;99060.44;5133246;27;20135;-52
2021/11/08 00:12:29;;;;;;;5.50;2.72;;;;;;;12.19;63.31;99052.13;5133413;27;20068;-52
2021/11/08 00:14:57;;;;;;;4.28;2.83;;;;;;;12.19;63.41;99046.88;5133386;27;20023;-52
2021/11/08 00:20:05;;;;;;;4.80;2.70;;;;;;;12.32;63.46;99046.06;5133269;27;20519;-52
2021/11/08 00:22:34;;;;;;;4.75;2.78;;;;;;;12.29;63.49;99043.03;5133186;27;20457;-52
2021/11/08 00:25:02;;;;;;;4.78;3.20;;;;;;;12.29;63.51;99040.38;5133101;27;20016;-51
2021/11/08 00:27:28;;;;;;;12.27;7.45;;;;;;;12.31;63.48;99043.63;5133148;27;20030;-52
2021/11/08 00:29:53;;;;;;;137.88;124.25;;;;;;;12.31;63.58;99036.53;5133068;27;20500;-51
2021/11/08 00:32:19;;;;;;;26.92;24.20;;;;;;;12.33;63.49;99037.13;5133095;27;20027;-51
2021/11/08 00:34:46;;;;;;;65.35;56.97;;;;;;;12.33;63.05;99041.59;5132988;27;20502;-51
2021/11/08 00:37:12;;;;;;;12.68;11.38;;;;;;;12.33;63.75;99031.88;5133025;27;20058;-52
2021/11/08 00:39:38;;;;;;;5.25;4.40;;;;;;;12.37;63.21;99033.13;5132959;27;20022;-52
2021/11/08 00:42:05;;;;;;;4.97;3.30;;;;;;;12.42;63.52;99018.53;5132927;27;20019;-52
2021/11/08 00:44:31;;;;;;;4.75;3.95;;;;;;;12.41;63.35;99030.06;5132859;27;20060;-52
2021/11/08 00:46:57;;;;;;;5.38;3.90;;;;;;;12.39;62.76;99030.25;5132863;27;20088;-52
2021/11/08 00:49:25;;;;;;;6.20;4.15;;;;;;;12.30;63.29;99031.50;5132814;27;20180;-52
2021/11/08 00:51:51;;;;;;;5.60;3.35;;;;;;;12.24;63.42;99027.84;5132783;27;20059;-51
2021/11/08 00:54:17;;;;;;;5.05;3.05;;;;;;;12.17;63.66;99025.22;5114352;28;20023;-52
2021/11/08 00:56:47;;;;;;;5.72;3.83;;;;;;;12.18;63.63;99021.56;5132853;28;20446;-52
2021/11/08 00:59:14;;;;;;;5.63;3.50;;;;;;;12.21;63.87;99024.81;5132843;28;20103;-52
2021/11/08 01:01:42;;;;;;;9.45;3.95;;;;;;;12.25;63.50;99015.50;5132688;28;20023;-52
2021/11/08 01:04:08;;;;;;;7.85;4.57;;;;;;;12.27;63.37;99019.53;5132595;28;20019;-51
2021/11/08 01:06:35;;;;;;;8.40;4.57;;;;;;;12.09;63.67;99022.78;5132646;28;20097;-51
2021/11/08 01:09:02;;;;;;;9.02;4.15;;;;;;;12.03;63.91;99026.19;5134162;27;20047;-52
2021/11/08 01:11:28;;;;;;;5.82;4.05;;;;;;;12.01;64.12;99033.47;5118516;27;20019;-52
2021/11/08 01:13:53;;;;;;;8.35;4.80;;;;;;;11.99;64.17;99030.25;5136852;27;20564;-52
2021/11/08 01:16:23;;;;;;;7.03;4.25;;;;;;;11.89;63.98;99029.81;5136879;27;20019;-52
2021/11/08 01:18:52;;;;;;;8.80;5.13;;;;;;;11.89;64.38;99028.03;5136819;27;20080;-52
2021/11/08 01:21:18;;;;;;;10.93;4.38;;;;;;;11.92;64.24;99034.69;5136684;27;20023;-52
2021/11/08 01:23:44;;;;;;;5.97;4.43;;;;;;;11.82;64.18;99035.06;5136687;27;20075;-52
2021/11/08 01:26:12;;;;;;;8.23;4.68;;;;;;;11.82;64.64;99044.78;5136570;27;20019;-51
2021/11/08 01:28:46;;;;;;;6.45;5.13;;;;;;;11.83;64.66;99047.22;5118104;27;20070;-52
2021/11/08 01:31:13;;;;;;;9.15;4.90;;;;;;;11.78;64.71;99045.16;5136591;27;20488;-52
2021/11/08 01:33:44;;;;;;;5.40;4.72;;;;;;;11.68;64.45;99038.66;5118029;27;20027;-52
2021/11/08 01:36:15;;;;;;;5.40;4.35;;;;;;;11.63;64.93;99041.06;5117957;27;20088;-51
2021/11/08 01:38:48;;;;;;;11.65;4.80;;;;;;;11.66;64.54;99025.72;5136495;27;20027;-52
2021/11/08 01:41:18;;;;;;;5.60;4.22;;;;;;;11.61;64.99;99030.78;5136359;27;20438;-52
2021/11/08 01:43:45;;;;;;;7.00;4.47;;;;;;;11.61;65.00;99022.88;5136291;27;20027;-52
2021/11/08 01:46:11;;;;;;;6.22;4.30;;;;;;;11.55;64.87;99016.59;5136154;27;20396;-52
2021/11/08 01:48:38;;;;;;;8.95;5.95;;;;;;;11.53;65.05;99017.78;5136264;27;20023;-51
2021/11/08 01:51:04;;;;;;;5.88;4.07;;;;;;;11.59;65.17;99019.66;5136168;27;20015;-52
2021/11/08 01:53:31;;;;;;;6.10;4.80;;;;;;;11.65;64.71;99010.97;5136195;27;20027;-52
2021/11/08 01:55:57;;;;;;;9.30;4.60;;;;;;;11.68;65.00;99021.06;5136143;27;20027;-52
2021/11/08 01:58:26;;;;;;;5.60;4.45;;;;;;;11.80;64.59;99010.78;5117588;27;20038;-52
2021/11/08 02:00:53;;;;;;;6.80;4.05;;;;;;;11.89;64.41;99009.63;5117532;27;20019;-52
2021/11/08 02:03:19;;;;;;;5.05;4.18;;;;;;;11.98;64.15;99013.66;5136200;27;20023;-52
2021/11/08 02:05:46;;;;;;;6.35;5.28;;;;;;;11.97;63.87;99014.69;5135793;27;20015;-52
2021/11/08 02:08:12;;;;;;;7.32;4.30;;;;;;;11.94;63.89;99022.16;5135584;27;20506;-52
2021/11/08 02:10:38;;;;;;;6.43;4.55;;;;;;;11.87;63.86;99014.25;5117341;27;20023;-52
2021/11/08 02:13:05;;;;;;;10.75;4.47;;;;;;;11.84;64.05;99014.63;5135705;27;20022;-52
2021/11/08 02:15:35;;;;;;;6.38;4.47;;;;;;;11.83;63.97;99017.44;5117233;27;20172;-52
2021/11/08 02:18:01;;;;;;;7.35;4.28;;;;;;;11.81;64.12;99015.00;5135634;27;20023;-52
2021/11/08 02:20:30;;;;;;;6.80;4.72;;;;;;;11.85;64.14;99025.94;5135374;27;20027;-51
2021/11/08 02:23:00;;;;;;;9.60;3.88;;;;;;;11.91;64.06;99019.91;5135818;27;20051;-51
2021/11/08 02:25:28;;;;;;;7.35;4.00;;;;;;;11.97;63.80;99016.47;5116988;27;20031;-52
2021/11/08 02:27:56;;;;;;;6.93;4.40;;;;;;;11.95;63.76;99035.13;5135446;27;20388;-52
2021/11/08 02:30:27;;;;;;;5.07;4.20;;;;;;;11.83;63.95;99026.16;5135381;27;20023;-51
2021/11/08 02:32:53;;;;;;;6.25;4.40;;;;;;;11.77;63.93;99026.94;5135419;27;20102;-52
2021/11/08 02:35:20;;;;;;;6.10;4.63;;;;;;;11.75;63.96;99018.44;5135236;27;20497;-51
2021/11/08 02:37:47;;;;;;;6.47;4.68;;;;;;;11.78;64.12;99018.84;5135225;27;20021;-51
2021/11/08 02:40:21;;;;;;;5.85;4.35;;;;;;;11.82;64.14;99019.28;5135116;27;20031;-51
2021/11/08 02:42:49;;;;;;;10.93;5.70;;;;;;;11.85;63.70;99026.78;5135217;27;20020;-52
2021/11/08 02:45:21;;;;;;;12.38;4.47;;;;;;;11.90;63.89;99024.38;5135266;27;20031;-52
2021/11/08 02:47:49;;;;;;;11.35;4.60;;;;;;;11.82;64.01;99016.66;5135068;27;20098;-52
2021/11/08 02:50:16;;;;;;;9.40;4.20;;;;;;;11.78;63.55;99018.84;5134965;27;20023;-52
2021/11/08 02:52:43;;;;;;;11.25;5.55;;;;;;;11.68;63.95;99015.00;5116505;27;20114;-51
2021/11/08 02:55:09;;;;;;;7.07;4.72;;;;;;;11.73;64.03;99018.66;5134951;27;20023;-52
2021/11/08 02:57:37;;;;;;;10.90;5.45;;;;;;;11.77;63.97;99024.31;5134918;27;20026;-51
2021/11/08 03:00:10;;;;;;;8.45;5.38;;;;;;;11.70;64.15;99019.06;5134862;27;20072;-50
2021/11/08 03:02:38;;;;;;;11.10;4.63;;;;;;;11.71;64.25;99017.22;5134866;27;20023;-51
2021/11/08 03:05:06;;;;;;;10.10;4.57;;;;;;;11.80;64.18;99006.31;5134604;27;20033;-52
2021/11/08 03:07:36;;;;;;;10.05;4.80;;;;;;;11.85;63.59;99015.44;5134647;27;20102;-51
2021/11/08 03:10:09;;;;;;;9.65;4.45;;;;;;;11.76;63.95;99005.09;5134495;27;20066;-52
2021/11/08 03:12:37;;;;;;;9.52;4.20;;;;;;;11.85;63.87;99005.75;5134657;27;20015;-52
2021/11/08 03:15:14;;;;;;;9.32;5.13;;;;;;;11.93;63.74;99005.56;5134565;27;20400;-52
2021/11/08 03:17:43;;;;;;;14.63;5.65;;;;;;;12.11;63.20;98997.09;5134575;27;20050;-51
2021/11/08 03:20:12;;;;;;;9.45;4.68;;;;;;;12.22;62.62;98997.50;5134455;27;20449;-52
2021/11/08 03:22:45;;;;;;;11.98;4.90;;;;;;;12.17;62.60;98991.00;5134319;27;20018;-52
2021/11/08 03:30:09;;;;;;;5.30;4.38;;;;;;;11.98;62.72;98992.63;5134245;27;20027;-52
2021/11/08 03:32:37;;;;;;;9.85;5.70;;;;;;;11.96;62.99;98983.31;5133855;27;20011;-51
2021/11/08 03:35:08;;;;;;;8.65;4.97;;;;;;;11.94;62.88;98985.34;5115648;27;20124;-52
2021/11/08 03:37:41;;;;;;;10.55;4.53;;;;;;;11.92;63.02;98982.09;5134096;27;20015;-52
2021/11/08 03:40:10;;;;;;;7.78;4.75;;;;;;;11.88;63.33;98984.28;5134096;27;20088;-52
2021/11/08 03:42:36;;;;;;;9.90;5.03;;;;;;;11.88;63.35;98973.75;5115409;27;20559;-51
2021/11/08 03:45:05;;;;;;;9.55;4.80;;;;;;;11.87;63.08;98976.59;5133857;27;20110;-52
2021/11/08 03:47:31;;;;;;;6.13;4.80;;;;;;;11.80;63.43;98969.50;5133863;27;20020;-52
2021/11/08 03:49:57;;;;;;;10.05;6.65;;;;;;;11.78;63.39;98976.78;5115383;27;20027;-52
2021/11/08 03:52:23;;;;;;;12.77;4.90;;;;;;;11.78;63.31;98974.16;5133788;27;20058;-51
2021/11/08 03:54:49;;;;;;;12.95;5.03;;;;;;;11.68;63.38;98965.06;5115350;27;20032;-52
2021/11/08 03:57:15;;;;;;;8.10;4.57;;;;;;;11.56;63.77;98970.88;5133611;27;20587;-52
2021/11/08 03:59:41;;;;;;;7.32;4.47;;;;;;;11.49;63.73;98967.44;5115222;27;20031;-52
2021/11/08 04:02:06;;;;;;;11.18;5.53;;;;;;;11.47;63.96;98973.91;5115108;27;20098;-52
2021/11/08 04:04:32;;;;;;;12.48;4.88;;;;;;;11.49;64.04;98971.88;5133497;27;20026;-51
2021/11/08 04:06:58;;;;;;;13.30;5.32;;;;;;;11.47;64.12;98979.16;5115129;27;20098;-51
2021/11/08 04:09:24;;;;;;;10.93;4.97;;;;;;;11.38;64.12;98976.72;5133212;27;20047;-52
2021/11/08 04:11:52;;;;;;;7.53;4.88;;;;;;;11.28;64.38;98976.28;5133418;27;20094;-52
2021/11/08 04:14:19;;;;;;;9.20;4.93;;;;;;;11.21;64.57;98975.47;5133413;27;20110;-52
2021/11/08 04:16:46;;;;;;;7.70;5.35;;;;;;;11.11;64.80;98978.47;5133280;27;20034;-52
2021/11/08 04:19:13;;;;;;;12.95;4.85;;;;;;;11.10;65.06;98983.91;5133342;27;20065;-51
2021/11/08 04:21:39;;;;;;;7.55;4.75;;;;;;;11.14;64.84;98972.00;5133192;27;20392;-52
2021/11/08 04:24:05;;;;;;;9.98;6.07;;;;;;;11.10;64.93;98989.16;5133142;27;20106;-51
2021/11/08 04:26:33;;;;;;;10.55;5.25;;;;;;;11.12;65.19;98976.63;5133033;27;20223;-51
2021/11/08 04:29:02;;;;;;;6.47;4.70;;;;;;;11.19;65.06;98964.34;5133192;27;20042;-52
2021/11/08 04:31:29;;;;;;;7.07;4.88;;;;;;;11.25;64.78;98960.94;5133387;27;20023;-52
2021/11/08 04:34:17;;;;;;;11.25;4.97;;;;;;;11.33;64.97;98963.38;5133083;27;20023;-52
2021/11/08 04:39:38;;;;;;;6.32;4.78;;;;;;;11.57;64.04;98971.72;5117959;27;20101;-52
2021/11/08 04:42:13;;;;;;;6.35;4.72;;;;;;;11.53;64.30;98966.03;5133007;27;20481;-52
2021/11/08 05:23:22;;;;;;;9.15;5.15;;;;;;;11.84;62.54;98945.44;5132606;28;20030;-52
2021/11/08 05:28:38;;;;;;;11.20;5.30;;;;;;;11.68;62.71;98947.44;5132598;28;20051;-52
2021/11/08 05:31:04;;;;;;;7.78;5.05;;;;;;;11.66;63.05;98943.41;5132504;28;20022;-51
2021/11/08 05:33:30;;;;;;;9.05;5.15;;;;;;;11.70;62.85;98934.91;5132481;28;20026;-51
2021/11/08 05:35:56;;;;;;;12.35;5.68;;;;;;;11.62;62.33;98942.19;5132342;28;20023;-52
2021/11/08 05:38:21;;;;;;;13.52;6.38;;;;;;;11.48;63.00;98949.25;5132700;28;20027;-52
2021/11/08 05:40:47;;;;;;;6.55;4.75;;;;;;;11.45;63.05;98957.50;5132381;28;20102;-52
2021/11/08 05:43:13;;;;;;;11.18;4.65;;;;;;;11.37;63.59;98948.81;5132349;28;20072;-52
2021/11/08 05:45:41;;;;;;;9.07;5.95;;;;;;;11.36;63.21;98952.44;5132293;28;20026;-52
2021/11/08 05:48:08;;;;;;;13.80;4.85;;;;;;;11.37;63.19;98963.78;5132304;28;20030;-52
2021/11/08 05:50:36;;;;;;;8.18;5.18;;;;;;;11.29;63.25;98964.78;5132262;28;20565;-52
2021/11/08 05:53:05;;;;;;;13.90;5.88;;;;;;;11.14;63.60;98967.53;5132232;28;20031;-52
2021/11/08 05:55:43;;;;;;;9.45;5.60;;;;;;;11.09;63.82;98977.84;5134557;27;20027;-51
2021/11/08 06:02:13;;;;;;;9.93;4.65;;;;;;;11.12;63.90;98984.50;5136398;27;20027;-51
2021/11/08 06:50:01;;;;;;;12.88;5.85;;;;;;;11.27;62.65;98990.44;5135241;27;20030;-51
2021/11/08 06:52:28;;;;;;;16.60;5.85;;;;;;;11.23;62.36;98996.25;5135169;27;20023;-51
2021/11/08 06:54:55;;;;;;;13.82;5.95;;;;;;;11.26;62.33;98988.81;5135004;27;20066;-52
2021/11/08 06:57:21;;;;;;;14.50;4.68;;;;;;;11.25;61.90;99002.13;5116490;27;20023;-52
2021/11/08 06:59:50;;;;;;;10.82;5.82;;;;;;;11.19;62.28;98999.28;5116370;27;20096;-51
2021/11/08 07:02:19;;;;;;;19.70;5.47;;;;;;;11.08;62.38;99007.72;5134844;27;20016;-52
2021/11/08 07:04:45;;;;;;;15.35;5.85;;;;;;;11.05;62.85;99004.69;5134732;27;20094;-52
2021/11/08 07:07:11;;;;;;;9.48;5.32;;;;;;;10.97;62.47;99011.72;5115139;27;20030;-52
2021/11/08 07:09:39;;;;;;;15.57;6.22;;;;;;;10.98;62.54;99015.16;5134468;27;20433;-52
2021/11/08 07:12:07;;;;;;;13.10;5.05;;;;;;;10.98;62.34;99007.28;5134579;27;20093;-52
2021/11/08 07:14:34;;;;;;;13.07;6.00;;;;;;;10.97;62.45;99003.84;5134621;27;20042;-51
2021/11/08 07:16:59;;;;;;;11.02;5.03;;;;;;;10.94;62.36;99012.09;5134568;27;20087;-52
2021/11/08 07:19:25;;;;;;;16.05;6.50;;;;;;;10.94;62.59;99014.72;5134501;27;20536;-52
2021/11/08 07:21:51;;;;;;;13.57;5.40;;;;;;;10.94;62.39;99011.28;5115990;27;20496;-52
2021/11/08 07:24:17;;;;;;;13.80;5.13;;;;;;;10.94;62.32;99009.47;5115785;27;20114;-52
2021/11/08 07:26:45;;;;;;;17.40;4.65;;;;;;;11.06;62.35;99009.75;5134293;27;20111;-52
2021/11/08 07:29:13;;;;;;;18.88;5.68;;;;;;;11.23;62.14;99014.66;5134270;27;20169;-51
2021/11/08 07:31:40;;;;;;;17.80;4.90;;;;;;;11.38;61.66;99003.00;5134204;27;20071;-51
2021/11/08 07:34:06;;;;;;;12.02;5.13;;;;;;;11.56;60.73;99007.69;5134216;27;20486;-52
2021/11/08 07:36:32;;;;;;;22.52;5.57;;;;;;;11.60;60.91;98994.97;5134114;27;20114;-51
2021/11/08 07:38:58;;;;;;;13.10;5.38;;;;;;;11.71;60.39;98998.81;5134056;27;20016;-52
2021/11/08 07:41:24;;;;;;;29.70;16.30;;;;;;;11.75;60.28;98995.59;5133995;27;20030;-52
2021/11/08 07:43:50;;;;;;;17.88;5.20;;;;;;;11.72;59.67;99006.50;5115556;27;20024;-52
2021/11/08 07:46:17;;;;;;;16.73;5.72;;;;;;;11.59;59.80;99007.31;5133855;27;20396;-51
2021/11/08 07:48:44;;;;;;;12.23;4.32;;;;;;;11.61;59.86;99015.00;5134163;27;20027;-52
2021/11/08 07:51:12;;;;;;;17.08;5.65;;;;;;;11.52;59.98;99013.56;5133837;27;20095;-51
2021/11/08 07:53:38;;;;;;;13.93;5.47;;;;;;;11.38;60.07;99018.75;5134100;27;20019;-51
2021/11/08 07:56:05;;;;;;;10.15;4.82;;;;;;;11.47;60.23;99022.03;5133748;27;20023;-52
2021/11/08 07:58:31;;;;;;;18.33;8.13;;;;;;;11.52;60.14;99021.44;5115245;27;20128;-51
2021/11/08 08:00:57;;;;;;;12.05;4.63;;;;;;;11.63;60.22;99015.63;5133657;27;20038;-52
2021/11/08 08:03:25;;;;;;;19.75;6.15;;;;;;;11.64;59.27;99006.69;5115140;27;20015;-52
2021/11/08 08:05:52;;;;;;;21.17;5.68;;;;;;;11.50;59.64;99003.22;5133490;27;20050;-52
2021/11/08 08:08:19;;;;;;;10.65;5.40;;;;;;;11.40;59.74;99006.22;5133203;27;20043;-51
2021/11/08 08:10:45;;;;;;;11.07;4.82;;;;;;;11.29;59.86;99017.31;5133556;27;20027;-52
2021/11/08 08:13:12;;;;;;;10.73;5.32;;;;;;;11.12;60.24;99016.03;5133368;27;20079;-52
2021/11/08 08:15:38;;;;;;;14.50;5.40;;;;;;;10.97;60.25;99016.97;5133400;27;20019;-51
2021/11/08 08:18:04;;;;;;;13.27;4.90;;;;;;;11.05;60.79;99007.34;5133160;27;20023;-52
2021/11/08 08:20:33;;;;;;;11.02;4.93;;;;;;;11.16;60.24;99006.75;5114818;27;20019;-51
2021/11/08 08:22:59;;;;;;;11.82;4.78;;;;;;;11.19;59.73;99009.81;5133213;27;20024;-51
2021/11/08 08:25:24;;;;;;;19.45;6.47;;;;;;;11.27;59.93;99008.00;5133085;27;20069;-52
2021/11/08 08:27:51;;;;;;;11.63;3.95;;;;;;;11.43;59.47;99009.47;5114745;27;20544;-52
2021/11/08 08:30:17;;;;;;;7.53;4.20;;;;;;;11.52;58.77;99014.34;5133106;27;20065;-51
2021/11/08 08:32:43;;;;;;;14.60;4.50;;;;;;;11.55;58.75;99008.72;5133103;27;20027;-52
2021/11/08 08:35:10;;;;;;;13.02;5.65;;;;;;;11.44;58.68;99019.78;5133148;27;20072;-51
2021/11/08 08:37:36;;;;;;;17.77;6.68;;;;;;;11.40;59.20;99011.47;5133073;27;20042;-51
2021/11/08 08:40:02;;;;;;;8.23;4.32;;;;;;;11.57;58.80;99017.22;5133015;27;20495;-51
2021/11/08 08:42:28;;;;;;;10.02;4.35;;;;;;;11.66;58.72;99023.09;5132967;27;20023;-51
2021/11/08 08:44:54;;;;;;;12.57;5.20;;;;;;;11.76;58.56;99018.25;5132867;27;20019;-51
2021/11/08 08:47:21;;;;;;;12.30;5.38;;;;;;;11.75;58.04;99019.28;5114448;27;20377;-51
2021/11/08 08:49:49;;;;;;;12.68;4.80;;;;;;;11.64;58.24;99027.72;5132895;27;20019;-51
2021/11/08 08:52:15;;;;;;;12.68;4.78;;;;;;;11.69;58.44;99030.59;5132843;27;20027;-52
2021/11/08 08:54:42;;;;;;;13.18;4.57;;;;;;;11.78;58.33;99025.94;5114406;27;20031;-51
2021/11/08 08:57:10;;;;;;;11.60;5.45;;;;;;;11.77;58.27;99029.56;5132801;27;20016;-52
2021/11/08 08:59:37;;;;;;;17.48;5.53;;;;;;;11.91;57.81;99027.81;5132785;28;20438;-51
2021/11/08 09:02:04;;;;;;;12.65;5.03;;;;;;;12.05;57.73;99015.47;5132737;28;20102;-51
2021/11/08 09:04:30;;;;;;;15.43;4.32;;;;;;;12.15;56.17;99010.63;5114203;28;20034;-51
2021/11/08 09:06:57;;;;;;;13.50;4.43;;;;;;;12.16;56.26;99017.53;5132711;28;20047;-51
2021/11/08 09:09:24;;;;;;;18.20;5.28;;;;;;;12.34;56.40;99016.91;5132389;28;20059;-51
2021/11/08 09:11:50;;;;;;;11.30;4.07;;;;;;;12.89;55.68;99013.97;5132625;28;20031;-51
2021/11/08 09:14:15;;;;;;;7.78;4.00;;;;;;;13.14;54.08;99007.00;5132545;28;20037;-51
2021/11/08 09:16:42;;;;;;;14.25;4.70;;;;;;;13.45;54.06;99010.75;5132548;28;20087;-52
2021/11/08 09:19:07;;;;;;;8.98;3.85;;;;;;;13.66;53.18;99008.81;5114171;28;20023;-51
2021/11/08 09:21:35;;;;;;;329.17;270.30;;;;;;;13.84;52.30;99016.00;5114067;28;20025;-51
2021/11/08 09:24:04;;;;;;;20.52;14.27;;;;;;;14.26;51.71;99011.81;5132624;28;20088;-51
2021/11/08 09:26:32;;;;;;;28.67;21.75;;;;;;;15.00;50.87;99016.44;5113902;28;20117;-50
2021/11/08 09:28:59;;;;;;;9.43;5.18;;;;;;;15.67;48.16;99003.97;5132468;27;20041;-52
2021/11/08 09:31:26;;;;;;;19.52;4.93;;;;;;;15.67;47.99;99011.09;5136475;27;20365;-52
2021/11/08 09:33:58;;;;;;;10.15;4.05;;;;;;;15.55;47.48;99011.88;5136547;27;20019;-51
2021/11/08 09:38:55;;;;;;;7.55;3.30;;;;;;;14.63;48.15;99013.75;5136483;27;20053;-51
2021/11/08 09:41:27;;;;;;;11.25;4.03;;;;;;;14.17;49.05;99005.22;5136435;27;20035;-52
2021/11/08 09:43:54;;;;;;;10.43;4.25;;;;;;;13.92;50.00;99013.94;5117870;27;20031;-52
2021/11/08 09:46:22;;;;;;;13.93;3.58;;;;;;;13.83;49.62;99009.13;5136228;27;20015;-52
2021/11/08 09:48:50;;;;;;;8.00;3.30;;;;;;;13.75;50.15;99007.53;5136253;27;20469;-52
2021/11/08 09:51:16;;;;;;;9.65;4.20;;;;;;;13.55;49.82;98991.84;5136178;27;20102;-51
2021/11/08 09:53:42;;;;;;;15.40;4.22;;;;;;;13.43;50.45;99004.88;5136168;27;20216;-51
2021/11/08 09:56:09;;;;;;;11.88;4.20;;;;;;;13.47;50.20;99002.63;5136085;27;20019;-51
2021/11/08 09:58:35;;;;;;;10.25;4.32;;;;;;;13.45;49.89;98996.75;5136080;27;20623;-51
2021/11/08 10:01:07;;;;;;;14.48;4.18;;;;;;;13.27;50.43;98992.16;5135988;27;20019;-51
2021/11/08 10:03:33;;;;;;;17.88;4.03;;;;;;;13.27;50.53;98973.72;5136015;27;20083;-51
2021/11/08 10:06:01;;;;;;;12.02;3.67;;;;;;;13.18;50.58;98996.88;5135875;27;20116;-51
2021/11/08 10:08:39;;;;;;;16.52;4.97;;;;;;;12.98;51.09;98989.03;5135697;27;20067;-52
2021/11/08 10:11:11;;;;;;;19.48;4.82;;;;;;;12.84;51.09;98990.06;5135792;27;20511;-52
2021/11/08 10:13:39;;;;;;;13.63;3.72;;;;;;;13.07;51.35;98981.69;5135807;27;20148;-51
2021/11/08 10:16:07;;;;;;;22.30;5.63;;;;;;;13.33;50.32;98967.63;5117189;27;20019;-51
2021/11/08 10:18:34;;;;;;;26.77;4.70;;;;;;;13.19;50.55;98977.38;5117229;27;20400;-51
2021/11/08 10:21:07;;;;;;;17.40;6.07;;;;;;;13.05;50.96;98979.25;5135599;27;20564;-51
2021/11/08 10:23:33;;;;;;;8.85;3.78;;;;;;;13.06;51.53;98975.63;5117106;27;20031;-51
2021/11/08 10:25:59;;;;;;;14.18;3.90;;;;;;;13.72;50.81;98976.31;5117006;27;20556;-51
2021/11/08 10:28:27;;;;;;;12.77;4.38;;;;;;;13.87;48.88;98970.72;5117041;27;20072;-51
2021/11/08 10:31:01;;;;;;;14.98;4.57;;;;;;;13.55;49.26;98970.75;5116980;27;20015;-51
2021/11/08 10:33:31;;;;;;;17.38;3.20;;;;;;;13.45;49.32;98958.03;5135478;27;20019;-51
2021/11/08 10:36:15;;;;;;;13.85;3.70;;;;;;;13.49;50.04;98947.88;5135369;27;20060;-51
2021/11/08 10:38:42;;;;;;;8.45;3.58;;;;;;;13.55;49.15;98945.16;5135396;27;20511;-51
2021/11/08 10:41:25;;;;;;;15.85;3.72;;;;;;;13.48;49.22;98949.69;5135199;27;20046;-52
2021/11/08 10:43:53;;;;;;;13.15;4.15;;;;;;;13.42;49.55;98940.00;5135242;27;20262;-51
2021/11/08 10:46:26;;;;;;;9.43;3.38;;;;;;;13.46;48.80;98932.44;5135116;27;20144;-52
2021/11/08 10:49:06;;;;;;;12.52;3.65;;;;;;;13.31;49.14;98938.81;5135152;27;20035;-51
2021/11/08 10:51:33;;;;;;;9.98;3.25;;;;;;;13.31;49.11;98945.94;5135093;27;20030;-51
2021/11/08 10:54:02;;;;;;;11.50;3.67;;;;;;;13.33;49.09;98946.53;5116559;27;20092;-52
2021/11/08 10:56:39;;;;;;;11.85;3.35;;;;;;;13.36;49.34;98962.75;5116456;27;20110;-51
2021/11/08 10:59:16;;;;;;;17.52;3.65;;;;;;;13.40;49.29;98952.59;5134988;27;20027;-52
2021/11/08 11:01:51;;;;;;;17.65;3.47;;;;;;;13.37;49.18;98945.88;5134992;27;20492;-51
2021/11/08 11:04:27;;;;;;;16.10;4.53;;;;;;;13.39;49.53;98958.88;5116378;27;20039;-52
2021/11/08 11:06:54;;;;;;;11.38;3.45;;;;;;;13.44;48.60;98950.31;5134814;27;20024;-50
2021/11/08 11:09:23;;;;;;;10.38;2.85;;;;;;;13.34;48.63;98943.69;5112649;28;20050;-51
2021/11/08 11:12:13;;;;;;;12.38;3.40;;;;;;;13.29;48.83;98954.06;5114043;28;20028;-51
2021/11/08 11:14:43;;;;;;;8.18;2.50;;;;;;;13.32;48.77;98956.28;5114042;28;20062;-51
2021/11/08 11:17:16;;;;;;;12.95;3.30;;;;;;;13.29;48.27;98951.41;5113920;28;20397;-51
2021/11/08 11:19:42;;;;;;;12.25;3.97;;;;;;;13.09;49.07;98950.69;5113991;28;20066;-51
2021/11/08 11:22:12;;;;;;;12.23;3.17;;;;;;;12.93;49.42;98946.69;5113932;28;20092;-51
2021/11/08 11:24:50;;;;;;;13.35;3.35;;;;;;;12.99;49.57;98959.03;5113821;28;20038;-51
2021/11/08 11:27:38;;;;;;;11.10;3.33;;;;;;;13.16;49.40;98949.63;5095481;28;20027;-51
2021/11/08 11:30:26;;;;;;;10.07;3.00;;;;;;;13.24;49.51;98961.75;5113557;28;20497;-51
2021/11/08 11:33:09;;;;;;;14.60;3.50;;;;;;;13.27;49.02;98942.88;5113745;28;20028;-51
2021/11/08 11:35:46;;;;;;;8.38;2.92;;;;;;;13.33;48.87;98934.16;5113622;28;20031;-51
2021/11/08 11:38:18;;;;;;;12.05;3.20;;;;;;;13.44;48.21;98927.41;5113692;28;20028;-51
2021/11/08 11:40:57;;;;;;;9.80;3.33;;;;;;;13.62;48.29;98924.03;5095286;28;20042;-51
2021/11/08 11:43:37;;;;;;;11.35;3.22;;;;;;;13.86;47.59;98914.50;5113630;28;20512;-52
2021/11/08 11:46:07;;;;;;;12.55;3.20;;;;;;;13.94;47.44;98921.34;5113461;28;20032;-51
2021/11/08 11:48:35;;;;;;;10.80;3.30;;;;;;;13.83;47.11;98909.66;5113727;28;20448;-50
2021/11/08 11:51:02;;;;;;;17.13;3.65;;;;;;;13.61;47.73;98903.97;5113352;28;20096;-51
2021/11/08 11:53:32;;;;;;;13.90;3.55;;;;;;;13.45;47.57;98901.84;5112858;28;20389;-51
2021/11/08 11:55:57;;;;;;;10.38;2.97;;;;;;;13.49;47.53;98908.31;5113221;28;20028;-51
2021/11/08 11:58:24;;;;;;;17.17;3.05;;;;;;;13.47;47.47;98895.34;5113183;28;20442;-52
2021/11/08 12:00:52;;;;;;;8.57;2.67;;;;;;;13.49;47.88;98908.31;5094804;28;20084;-51
2021/11/08 12:03:19;;;;;;;7.70;2.72;;;;;;;13.58;47.59;98901.75;5113145;28;20170;-51
2021/11/08 12:05:46;;;;;;;8.88;2.60;;;;;;;13.61;47.26;98903.97;5112954;28;20047;-51
2021/11/08 12:08:14;;;;;;;11.23;3.10;;;;;;;13.54;47.55;98903.19;5112671;28;20031;-51
2021/11/08 12:10:50;;;;;;;9.35;2.60;;;;;;;13.51;47.85;98916.81;5112996;28;20389;-51
2021/11/08 12:13:21;;;;;;;13.65;3.45;;;;;;;13.54;48.06;98916.38;5112821;28;20027;-51
2021/11/08 12:15:48;;;;;;;8.05;3.20;;;;;;;13.57;47.59;98916.75;5111610;28;20484;-51
2021/11/08 12:18:16;;;;;;;9.00;3.25;;;;;;;13.50;47.89;98917.81;5111552;28;20031;-52
2021/11/08 12:20:51;;;;;;;11.38;3.00;;;;;;;13.46;48.04;98925.38;5112845;28;20061;-51
2021/11/08 12:23:23;;;;;;;10.88;2.95;;;;;;;13.43;48.29;98923.16;5094526;28;20027;-51
2021/11/08 12:25:50;;;;;;;8.45;2.90;;;;;;;13.29;48.37;98929.50;5112735;28;20028;-51
2021/11/08 12:28:28;;;;;;;8.85;2.83;;;;;;;13.12;48.74;98930.00;5112682;28;20019;-51
2021/11/08 12:30:56;;;;;;;9.15;2.83;;;;;;;13.16;48.90;98919.84;5112663;28;20030;-51
2021/11/08 12:33:33;;;;;;;11.77;4.40;;;;;;;13.30;49.13;98928.50;5112573;28;20438;-51
2021/11/08 12:36:13;;;;;;;10.90;2.97;;;;;;;13.36;48.90;98931.09;5112595;28;20468;-51
2021/11/08 12:38:54;;;;;;;6.90;3.20;;;;;;;13.46;48.67;98927.19;5112535;28;20024;-51
2021/11/08 12:41:28;;;;;;;8.95;3.45;;;;;;;13.63;48.11;98928.28;5094179;28;20126;-52
2021/11/08 12:44:03;;;;;;;6.53;3.20;;;;;;;13.69;47.86;98931.91;5112514;28;20477;-52
2021/11/08 12:46:43;;;;;;;9.40;2.80;;;;;;;13.65;48.21;98928.88;5112275;28;20019;-52
2021/11/08 12:49:14;;;;;;;11.05;5.55;;;;;;;13.75;47.94;98920.50;5112423;28;20525;-51
2021/11/08 12:51:51;;;;;;;9.57;3.50;;;;;;;13.91;47.47;98925.22;5112301;28;20035;-52
2021/11/08 12:54:18;;;;;;;12.15;3.95;;;;;;;13.98;47.57;98927.81;5112300;28;20031;-51
2021/11/08 12:56:45;;;;;;;8.27;2.83;;;;;;;14.00;47.36;98936.31;5112286;28;20046;-52
2021/11/08 12:59:34;;;;;;;9.48;2.83;;;;;;;13.97;47.91;98927.00;5112294;28;20031;-51
2021/11/08 13:02:10;;;;;;;9.82;2.95;;;;;;;14.11;47.18;98927.69;5112300;28;20393;-51
2021/11/08 13:04:54;;;;;;;7.07;2.47;;;;;;;14.33;46.46;98912.25;5111259;28;20027;-51
2021/11/08 13:07:21;;;;;;;9.32;2.25;;;;;;;14.28;46.32;98911.28;5112200;28;20028;-51
2021/11/08 13:09:53;;;;;;;10.70;2.83;;;;;;;14.24;46.73;98904.84;5112064;28;20044;-51
2021/11/08 13:12:30;;;;;;;7.85;2.90;;;;;;;14.28;46.52;98912.09;5112105;28;20028;-51
2021/11/08 13:15:20;;;;;;;14.25;2.85;;;;;;;14.44;46.44;98912.56;5112214;28;20034;-52
2021/11/08 13:17:53;;;;;;;11.25;2.80;;;;;;;14.73;46.10;98911.84;5111643;28;20020;-51
2021/11/08 13:20:23;;;;;;;7.43;2.70;;;;;;;15.02;45.14;98900.72;5111717;28;20027;-52